createdAt,value
2019-03-03T00:00:53.623Z,10.00
2019-03-03T00:03:22.731Z,10.00
2019-03-03T00:05:51.775Z,10.00
2019-03-03T00:08:20.576Z,10.00
2019-03-03T00:10:49.445Z,10.00
2019-03-03T00:13:19.050Z,10.00
2019-03-03T00:15:47.945Z,10.00
2019-03-03T00:18:16.689Z,10.00
2019-03-03T00:20:45.726Z,10.00
2019-03-03T00:23:14.716Z,10.00
2019-03-03T00:25:43.461Z,9.90
2019-03-03T00:28:12.395Z,9.90
2019-03-03T00:30:41.584Z,9.90
2019-03-03T00:33:10.460Z,9.90
2019-03-03T00:35:39.669Z,9.90
2019-03-03T00:38:14.450Z,9.90
2019-03-03T00:41:01.384Z,9.90
2019-03-03T00:43:48.001Z,9.90
2019-03-03T00:46:35.005Z,9.90
2019-03-03T00:49:26.187Z,9.90
2019-03-03T00:52:14.194Z,9.90
2019-03-03T00:54:51.493Z,9.90
2019-03-03T00:57:24.492Z,9.90
2019-03-03T01:00:18.649Z,10.00
2019-03-03T01:03:02.844Z,10.00
2019-03-03T01:05:44.702Z,10.00
2019-03-03T01:08:35.780Z,10.00
2019-03-03T01:11:23.867Z,10.00
2019-03-03T01:13:59.896Z,10.00
2019-03-03T01:16:41.609Z,10.00
2019-03-03T01:19:27.665Z,10.00
2019-03-03T01:22:33.933Z,10.00
2019-03-03T01:25:03.557Z,10.00
2019-03-03T01:27:32.297Z,10.10
2019-03-03T01:30:01.615Z,10.20
2019-03-03T01:32:30.442Z,10.20
2019-03-03T01:34:59.301Z,10.20
2019-03-03T01:37:28.476Z,10.10
2019-03-03T01:39:57.492Z,10.10
2019-03-03T01:42:26.312Z,10.10
2019-03-03T01:44:55.356Z,10.10
2019-03-03T01:47:24.295Z,10.00
2019-03-03T01:49:53.445Z,10.10
2019-03-03T01:52:22.329Z,10.10
2019-03-03T01:54:51.217Z,10.10
2019-03-03T01:57:20.044Z,10.00
2019-03-03T01:59:48.909Z,10.00
2019-03-03T02:02:17.888Z,10.00
2019-03-03T02:04:46.717Z,10.00
2019-03-03T02:07:16.122Z,10.10
2019-03-03T02:09:45.040Z,10.00
2019-03-03T02:12:14.052Z,10.00
2019-03-03T02:14:42.791Z,10.00
2019-03-03T02:17:12.333Z,10.00
2019-03-03T02:19:41.573Z,10.00
2019-03-03T02:22:11.002Z,10.00
2019-03-03T02:24:40.014Z,9.90
2019-03-03T02:27:08.801Z,9.90
2019-03-03T02:29:37.732Z,10.00
2019-03-03T02:32:06.871Z,10.00
2019-03-03T02:34:36.102Z,9.90
2019-03-03T02:37:05.172Z,9.90
2019-03-03T02:39:33.898Z,9.80
2019-03-03T02:42:03.171Z,9.80
2019-03-03T02:44:32.175Z,9.70
2019-03-03T02:47:01.090Z,9.70
2019-03-03T02:49:30.172Z,9.60
2019-03-03T02:51:59.225Z,9.70
2019-03-03T02:54:28.237Z,9.60
2019-03-03T02:56:57.140Z,9.70
2019-03-03T02:59:25.869Z,9.70
2019-03-03T03:02:08.422Z,9.60
2019-03-03T03:04:37.508Z,9.60
2019-03-03T03:07:14.204Z,9.60
2019-03-03T03:10:09.797Z,9.60
2019-03-03T03:13:01.843Z,9.60
2019-03-03T03:16:13.467Z,9.60
2019-03-03T03:19:01.939Z,9.60
2019-03-03T03:22:05.307Z,9.60
2019-03-03T03:24:46.309Z,9.60
2019-03-03T03:27:37.740Z,9.70
2019-03-03T03:30:14.070Z,9.70
2019-03-03T03:32:47.438Z,9.70
2019-03-03T03:35:27.972Z,9.70
2019-03-03T03:38:03.753Z,9.70
2019-03-03T03:41:10.102Z,9.70
2019-03-03T03:44:06.993Z,9.70
2019-03-03T03:46:54.893Z,9.70
2019-03-03T03:49:46.399Z,9.70
2019-03-03T03:52:31.462Z,9.70
2019-03-03T03:55:23.024Z,9.70
2019-03-03T03:58:05.318Z,9.70
2019-03-03T04:01:05.596Z,9.70
2019-03-03T04:03:52.648Z,9.70
2019-03-03T04:06:46.757Z,9.70
2019-03-03T04:09:36.017Z,9.70
2019-03-03T04:12:19.006Z,9.80
2019-03-03T04:15:09.930Z,9.80
2019-03-03T04:17:48.776Z,9.80
2019-03-03T04:20:28.413Z,9.80
2019-03-03T04:23:06.857Z,9.80
2019-03-03T04:26:01.962Z,9.80
2019-03-03T04:28:45.680Z,9.80
2019-03-03T04:31:23.737Z,9.80
2019-03-03T04:33:59.357Z,9.80
2019-03-03T04:36:40.671Z,9.80
2019-03-03T04:39:27.761Z,9.80
2019-03-03T04:42:15.036Z,9.80
2019-03-03T04:45:02.116Z,9.80
2019-03-03T04:48:05.553Z,9.80
2019-03-03T04:50:47.501Z,9.80
2019-03-03T04:53:24.111Z,9.80
2019-03-03T04:56:14.885Z,9.80
2019-03-03T04:59:02.976Z,9.70
2019-03-03T05:01:49.995Z,9.80
2019-03-03T05:04:26.542Z,9.70
2019-03-03T05:07:09.229Z,9.70
2019-03-03T05:09:50.012Z,9.70
2019-03-03T05:12:40.160Z,9.60
2019-03-03T05:15:28.080Z,9.50
2019-03-03T05:18:06.512Z,9.40
2019-03-03T05:20:47.625Z,9.40
2019-03-03T05:23:17.634Z,9.30
2019-03-03T05:25:46.355Z,9.30
2019-03-03T05:28:15.462Z,9.30
2019-03-03T05:30:44.457Z,9.30
2019-03-03T05:33:13.260Z,9.30
2019-03-03T05:35:42.433Z,9.40
2019-03-03T05:38:11.228Z,9.40
2019-03-03T05:40:40.168Z,9.50
2019-03-03T05:43:08.946Z,9.50
2019-03-03T05:45:37.822Z,9.50
2019-03-03T05:48:06.701Z,9.50
2019-03-03T05:50:35.892Z,9.50
2019-03-03T05:53:04.668Z,9.40
2019-03-03T05:55:33.660Z,9.40
2019-03-03T05:58:02.867Z,9.40
2019-03-03T06:00:31.661Z,9.40
2019-03-03T06:03:00.372Z,9.40
2019-03-03T06:05:29.160Z,9.30
2019-03-03T06:07:57.898Z,9.40
2019-03-03T06:10:26.632Z,9.40
2019-03-03T06:12:55.513Z,9.40
2019-03-03T06:15:24.330Z,9.50
2019-03-03T06:17:53.284Z,9.50
2019-03-03T06:20:22.060Z,9.50
2019-03-03T06:22:51.027Z,9.60
2019-03-03T06:25:20.145Z,9.60
2019-03-03T06:27:48.890Z,9.60
2019-03-03T06:30:17.904Z,9.70
2019-03-03T06:32:46.642Z,9.70
2019-03-03T06:35:15.462Z,9.80
2019-03-03T06:37:45.487Z,9.80
2019-03-03T06:40:14.349Z,9.80
2019-03-03T06:42:43.091Z,9.80
2019-03-03T06:45:12.688Z,9.70
2019-03-03T06:47:41.665Z,9.70
2019-03-03T06:50:11.649Z,9.70
2019-03-03T06:52:41.081Z,9.60
2019-03-03T06:55:11.548Z,9.60
2019-03-03T06:57:40.292Z,9.70
2019-03-03T07:00:15.114Z,9.60
2019-03-03T07:02:44.213Z,9.60
2019-03-03T07:05:13.188Z,9.50
2019-03-03T07:07:42.325Z,9.50
2019-03-03T07:10:14.477Z,9.40
2019-03-03T07:12:43.558Z,9.30
2019-03-03T07:15:15.221Z,9.20
2019-03-03T07:17:44.306Z,9.20
2019-03-03T07:20:13.704Z,9.20
2019-03-03T07:22:42.585Z,9.20
2019-03-03T07:25:12.297Z,9.20
2019-03-03T07:27:41.102Z,9.20
2019-03-03T07:30:13.277Z,9.20
2019-03-03T07:33:04.181Z,9.10
2019-03-03T07:35:33.164Z,9.10
2019-03-03T07:38:01.966Z,9.00
2019-03-03T07:40:31.045Z,9.10
2019-03-03T07:42:59.815Z,9.10
2019-03-03T07:45:28.637Z,9.10
2019-03-03T07:47:57.726Z,9.20
2019-03-03T07:50:26.497Z,9.10
2019-03-03T07:52:55.283Z,9.20
2019-03-03T07:55:24.196Z,9.10
2019-03-03T07:57:53.155Z,9.10
2019-03-03T08:00:22.781Z,9.00
2019-03-03T08:02:51.732Z,9.00
2019-03-03T08:05:20.576Z,9.00
2019-03-03T08:07:49.620Z,8.90
2019-03-03T08:10:18.616Z,8.90
2019-03-03T08:12:47.560Z,8.90
2019-03-03T08:15:16.549Z,8.90
2019-03-03T08:17:45.460Z,8.90
2019-03-03T08:20:14.483Z,8.90
2019-03-03T08:22:43.621Z,8.90
2019-03-03T08:25:12.525Z,8.90
2019-03-03T08:27:41.465Z,9.00
2019-03-03T08:30:10.771Z,9.00
2019-03-03T08:32:39.592Z,9.00
2019-03-03T08:35:10.850Z,9.00
2019-03-03T08:37:41.314Z,9.00
2019-03-03T08:40:10.504Z,9.10
2019-03-03T08:43:08.077Z,9.00
2019-03-03T08:45:51.044Z,9.10
2019-03-03T08:48:32.580Z,9.20
2019-03-03T08:51:07.987Z,9.20
2019-03-03T08:54:08.141Z,9.20
2019-03-03T08:56:44.301Z,9.20
2019-03-03T08:59:28.371Z,9.20
2019-03-03T09:02:16.326Z,9.20
2019-03-03T09:04:53.953Z,9.20
2019-03-03T09:07:31.055Z,9.20
2019-03-03T09:10:25.167Z,9.20
2019-03-03T09:13:12.566Z,9.20
2019-03-03T09:16:04.669Z,9.20
2019-03-03T09:19:07.571Z,9.20
2019-03-03T09:22:00.796Z,9.20
2019-03-03T09:24:47.309Z,9.20
2019-03-03T09:27:47.864Z,9.20
2019-03-03T09:30:51.032Z,9.10
2019-03-03T09:33:39.466Z,9.10
2019-03-03T09:36:39.632Z,9.10
2019-03-03T09:39:28.700Z,9.10
2019-03-03T09:42:15.241Z,9.10
2019-03-03T09:45:04.037Z,9.10
2019-03-03T09:47:46.568Z,9.10
2019-03-03T09:50:33.174Z,9.10
2019-03-03T09:53:31.714Z,9.10
2019-03-03T09:56:11.163Z,9.20
2019-03-03T09:58:59.060Z,9.20
2019-03-03T10:01:53.329Z,9.20
2019-03-03T10:04:51.600Z,9.20
2019-03-03T10:07:38.769Z,9.20
2019-03-03T10:10:28.563Z,9.30
2019-03-03T10:13:22.444Z,9.30
2019-03-03T10:16:09.223Z,9.40
2019-03-03T10:18:50.949Z,9.40
2019-03-03T10:21:30.491Z,9.50
2019-03-03T10:24:21.196Z,9.50
2019-03-03T10:27:21.549Z,9.50
2019-03-03T10:29:59.455Z,9.50
2019-03-03T10:32:50.469Z,9.60
2019-03-03T10:35:37.708Z,9.60
2019-03-03T10:38:16.565Z,9.70
2019-03-03T10:41:02.794Z,9.70
2019-03-03T10:43:44.874Z,9.70
2019-03-03T10:46:25.196Z,9.70
2019-03-03T10:49:13.356Z,9.80
2019-03-03T10:51:54.008Z,9.80
2019-03-03T10:54:36.973Z,9.80
2019-03-03T10:57:22.816Z,9.80
2019-03-03T11:00:10.909Z,9.80
2019-03-03T11:03:14.428Z,9.90
2019-03-03T11:06:01.340Z,9.90
2019-03-03T11:08:42.045Z,10.00
2019-03-03T11:11:28.693Z,10.00
2019-03-03T11:14:12.591Z,10.10
2019-03-03T11:17:18.751Z,10.20
2019-03-03T11:19:55.520Z,10.20
2019-03-03T11:22:42.497Z,10.20
2019-03-03T11:25:35.466Z,10.20
2019-03-03T11:28:23.598Z,10.20
2019-03-03T11:30:54.083Z,10.20
2019-03-03T11:33:41.967Z,10.30
2019-03-03T11:36:20.673Z,10.20
2019-03-03T11:39:05.340Z,10.20
2019-03-03T11:41:59.755Z,10.20
2019-03-03T11:44:46.353Z,10.20
2019-03-03T11:47:46.691Z,10.20
2019-03-03T11:50:28.478Z,10.20
2019-03-03T11:53:34.947Z,10.20
2019-03-03T11:56:13.067Z,10.30
2019-03-03T11:59:03.255Z,10.30
2019-03-03T12:01:57.316Z,10.30
2019-03-03T12:04:45.163Z,10.40
2019-03-03T12:07:22.436Z,10.40
2019-03-03T12:10:10.465Z,10.40
2019-03-03T12:12:58.440Z,10.40
2019-03-03T12:15:35.586Z,10.50
2019-03-03T12:18:13.270Z,10.40
2019-03-03T12:21:01.536Z,10.50
2019-03-03T12:23:47.431Z,10.60
2019-03-03T12:26:23.994Z,10.60
2019-03-03T12:29:16.113Z,10.60
2019-03-03T12:31:54.609Z,10.60
2019-03-03T12:34:31.613Z,10.60
2019-03-03T12:37:08.678Z,10.70
2019-03-03T12:39:56.224Z,10.70
2019-03-03T12:42:53.464Z,10.70
2019-03-03T12:45:47.147Z,10.70
2019-03-03T12:48:44.462Z,10.70
2019-03-03T12:51:30.881Z,10.80
2019-03-03T12:54:28.385Z,10.70
2019-03-03T12:57:07.049Z,10.70
2019-03-03T12:59:57.860Z,10.70
2019-03-03T13:02:44.953Z,10.70
2019-03-03T13:05:36.623Z,10.70
2019-03-03T13:08:23.619Z,10.70
2019-03-03T13:11:06.744Z,10.70
2019-03-03T13:13:43.113Z,10.70
2019-03-03T13:16:30.060Z,10.70
2019-03-03T13:19:15.503Z,10.70
2019-03-03T13:21:50.768Z,10.60
2019-03-03T13:24:44.779Z,10.70
2019-03-03T13:27:29.861Z,10.70
2019-03-03T13:30:09.104Z,10.60
2019-03-03T13:32:51.834Z,10.60
2019-03-03T13:35:28.996Z,10.50
2019-03-03T13:38:29.066Z,10.60
2019-03-03T13:41:17.236Z,10.60
2019-03-03T13:43:45.969Z,10.60
2019-03-03T13:46:15.128Z,10.60
2019-03-03T13:48:44.049Z,10.60
2019-03-03T13:51:12.980Z,10.60
2019-03-03T13:53:41.806Z,10.60
2019-03-03T13:56:10.834Z,10.50
2019-03-03T13:58:39.580Z,10.50
2019-03-03T14:01:08.690Z,10.50
2019-03-03T14:03:37.839Z,10.60
2019-03-03T14:06:09.857Z,10.60
2019-03-03T14:08:38.895Z,10.60
2019-03-03T14:11:07.862Z,10.60
2019-03-03T14:13:36.573Z,10.60
2019-03-03T14:16:05.754Z,10.60
2019-03-03T14:18:37.346Z,10.70
2019-03-03T14:21:06.365Z,10.70
2019-03-03T14:23:35.386Z,10.80
2019-03-03T14:26:04.588Z,11.00
2019-03-03T14:28:33.678Z,11.00
2019-03-03T14:31:02.642Z,11.00
2019-03-03T14:33:31.860Z,11.10
2019-03-03T14:36:00.687Z,11.10
2019-03-03T14:38:29.501Z,11.00
2019-03-03T14:40:58.501Z,11.10
2019-03-03T14:43:27.520Z,11.20
2019-03-03T14:45:57.967Z,11.20
2019-03-03T14:48:26.809Z,11.10
2019-03-03T14:50:56.048Z,11.10
2019-03-03T14:53:25.019Z,11.10
2019-03-03T14:55:53.789Z,11.10
2019-03-03T14:58:22.592Z,11.20
2019-03-03T15:00:51.556Z,11.20
2019-03-03T15:03:20.427Z,11.20
2019-03-03T15:05:49.212Z,11.30
2019-03-03T15:08:18.183Z,11.20
2019-03-03T15:10:47.004Z,11.20
2019-03-03T15:13:16.154Z,11.20
2019-03-03T15:15:45.580Z,11.20
2019-03-03T15:18:14.499Z,11.20
2019-03-03T15:20:43.613Z,11.30
2019-03-03T15:23:12.483Z,11.30
2019-03-03T15:25:41.577Z,11.30
2019-03-03T15:28:17.012Z,11.30
2019-03-03T15:30:47.352Z,11.30
2019-03-03T15:33:19.155Z,11.30
2019-03-03T15:35:51.490Z,11.30
2019-03-03T15:38:22.566Z,11.30
2019-03-03T15:41:01.899Z,11.30
2019-03-03T15:43:30.655Z,11.30
2019-03-03T15:45:59.444Z,11.40
2019-03-03T15:48:28.389Z,11.40
2019-03-03T15:50:58.908Z,11.40
2019-03-03T15:53:27.719Z,11.40
2019-03-03T15:55:56.541Z,11.50
2019-03-03T15:58:25.442Z,11.40
2019-03-03T16:00:54.264Z,11.40
2019-03-03T16:03:22.984Z,11.50
2019-03-03T16:05:52.173Z,11.50
2019-03-03T16:08:21.256Z,11.50
2019-03-03T16:10:50.089Z,11.50
2019-03-03T16:13:19.037Z,11.50
2019-03-03T16:15:48.347Z,11.50
2019-03-03T16:18:17.337Z,11.50
2019-03-03T16:20:46.057Z,11.60
2019-03-03T16:23:15.061Z,11.60
2019-03-03T16:25:44.318Z,11.60
2019-03-03T16:28:13.103Z,11.60
2019-03-03T16:30:42.264Z,11.60
2019-03-03T16:33:20.210Z,11.60
2019-03-03T16:35:41.914Z,11.60
2019-03-03T16:38:10.659Z,11.60
2019-03-03T16:40:40.081Z,11.50
2019-03-03T16:43:09.107Z,11.60
2019-03-03T16:45:37.949Z,11.60
2019-03-03T16:48:06.753Z,11.50
2019-03-03T16:50:35.640Z,11.60
2019-03-03T16:53:05.766Z,11.70
2019-03-03T16:55:35.030Z,11.60
2019-03-03T16:58:04.058Z,11.60
2019-03-03T17:00:33.216Z,11.60
2019-03-03T17:03:02.468Z,11.60
2019-03-03T17:05:32.150Z,11.60
2019-03-03T17:08:01.108Z,11.60
2019-03-03T17:10:29.906Z,11.60
2019-03-03T17:12:58.651Z,11.60
2019-03-03T17:15:27.821Z,11.50
2019-03-03T17:17:57.080Z,11.50
2019-03-03T17:20:25.829Z,11.60
2019-03-03T17:22:54.542Z,11.60
2019-03-03T17:25:23.687Z,11.60
2019-03-03T17:27:52.759Z,11.60
2019-03-03T17:30:24.844Z,11.60
2019-03-03T17:32:53.566Z,11.60
2019-03-03T17:35:22.438Z,11.60
2019-03-03T17:37:51.556Z,11.60
2019-03-03T17:40:20.800Z,11.60
2019-03-03T17:42:49.666Z,11.60
2019-03-03T17:45:20.465Z,11.60
2019-03-03T17:47:49.550Z,11.60
2019-03-03T17:50:22.201Z,11.60
2019-03-03T17:52:51.227Z,11.60
2019-03-03T17:55:20.172Z,11.60
2019-03-03T17:57:49.170Z,11.50
2019-03-03T18:00:21.416Z,11.50
2019-03-03T18:02:50.957Z,11.60
2019-03-03T18:05:20.489Z,11.60
2019-03-03T18:07:50.155Z,11.50
2019-03-03T18:10:19.321Z,11.60
2019-03-03T18:12:48.110Z,11.50
2019-03-03T18:15:17.016Z,11.60
2019-03-03T18:17:46.026Z,11.50
2019-03-03T18:20:14.860Z,11.60
2019-03-03T18:22:43.719Z,11.60
2019-03-03T18:25:14.649Z,11.60
2019-03-03T18:27:44.032Z,11.60
2019-03-03T18:30:17.562Z,11.60
2019-03-03T18:32:46.305Z,11.60
2019-03-03T18:35:15.644Z,11.60
2019-03-03T18:37:44.606Z,11.60
2019-03-03T18:40:15.444Z,11.70
2019-03-03T18:42:44.739Z,11.70
2019-03-03T18:45:14.101Z,11.70
2019-03-03T18:47:42.984Z,11.70
2019-03-03T18:50:14.909Z,11.70
2019-03-03T18:52:43.789Z,11.60
2019-03-03T18:55:12.900Z,11.60
2019-03-03T18:57:41.719Z,11.70
2019-03-03T19:00:18.563Z,11.60
2019-03-03T19:02:47.696Z,11.60
2019-03-03T19:05:17.738Z,11.60
2019-03-03T19:07:47.752Z,11.60
2019-03-03T19:10:20.232Z,11.50
2019-03-03T19:12:49.112Z,11.50
2019-03-03T19:15:19.058Z,11.50
2019-03-03T19:17:48.092Z,11.50
2019-03-03T19:20:19.493Z,11.50
2019-03-03T19:22:49.528Z,11.60
2019-03-03T19:25:18.996Z,11.60
2019-03-03T19:27:49.006Z,11.60
2019-03-03T19:30:20.846Z,11.50
2019-03-03T19:33:10.550Z,11.60
2019-03-03T19:35:39.656Z,11.70
2019-03-03T19:38:08.542Z,11.70
2019-03-03T19:40:37.492Z,11.70
2019-03-03T19:43:06.217Z,11.70
2019-03-03T19:45:35.245Z,11.80
2019-03-03T19:48:04.592Z,11.70
2019-03-03T19:50:33.897Z,11.80
2019-03-03T19:53:02.927Z,11.80
2019-03-03T19:55:31.839Z,11.80
2019-03-03T19:58:00.792Z,11.80
2019-03-03T20:00:36.798Z,11.80
2019-03-03T20:03:05.408Z,11.80
2019-03-03T20:05:34.350Z,11.70
2019-03-03T20:08:04.658Z,11.70
2019-03-03T20:10:33.697Z,11.70
2019-03-03T20:13:03.532Z,11.70
2019-03-03T20:15:32.812Z,11.70
2019-03-03T20:18:01.661Z,11.70
2019-03-03T20:20:30.808Z,11.70
2019-03-03T20:23:00.327Z,11.50
2019-03-03T20:25:29.304Z,11.50
2019-03-03T20:27:58.030Z,11.50
2019-03-03T20:30:27.185Z,11.50
2019-03-03T20:32:56.045Z,11.40
2019-03-03T20:35:25.067Z,11.40
2019-03-03T20:37:53.843Z,11.40
2019-03-03T20:40:23.210Z,11.40
2019-03-03T20:42:51.995Z,11.40
2019-03-03T20:45:22.889Z,11.30
2019-03-03T20:47:51.708Z,11.40
2019-03-03T20:50:22.318Z,11.40
2019-03-03T20:52:51.162Z,11.40
2019-03-03T20:55:31.950Z,11.40
2019-03-03T20:58:00.851Z,11.30
2019-03-03T21:00:30.183Z,11.20
2019-03-03T21:02:59.601Z,11.10
2019-03-03T21:05:28.773Z,11.20
2019-03-03T21:08:00.287Z,11.20
2019-03-03T21:10:29.265Z,11.20
2019-03-03T21:12:58.261Z,11.20
2019-03-03T21:15:27.391Z,11.30
2019-03-03T21:17:56.180Z,11.30
2019-03-03T21:20:25.536Z,11.30
2019-03-03T21:22:54.502Z,11.40
2019-03-03T21:25:23.352Z,11.40
2019-03-03T21:27:52.061Z,11.40
2019-03-03T21:30:23.961Z,11.50
2019-03-03T21:32:52.928Z,11.60
2019-03-03T21:35:21.944Z,11.60
2019-03-03T21:37:50.749Z,11.60
2019-03-03T21:40:19.741Z,11.60
2019-03-03T21:42:48.917Z,11.70
2019-03-03T21:45:19.029Z,11.70
2019-03-03T21:47:47.977Z,11.70
2019-03-03T21:50:19.749Z,11.80
2019-03-03T21:52:48.495Z,11.80
2019-03-03T21:55:17.473Z,11.90
2019-03-03T21:57:46.252Z,11.90
2019-03-03T22:00:27.090Z,11.90
2019-03-03T22:03:09.673Z,11.90
2019-03-03T22:05:38.558Z,11.90
2019-03-03T22:08:07.334Z,11.90
2019-03-03T22:10:36.297Z,11.90
2019-03-03T22:13:18.252Z,11.90
2019-03-03T22:15:47.203Z,12.00
2019-03-03T22:18:16.075Z,12.00
2019-03-03T22:20:49.854Z,12.00
2019-03-03T22:23:21.495Z,12.00
2019-03-03T22:25:50.217Z,12.00
2019-03-03T22:28:19.112Z,12.00
2019-03-03T22:30:48.169Z,12.10
2019-03-03T22:33:16.878Z,12.10
2019-03-03T22:35:45.868Z,12.10
2019-03-03T22:38:14.612Z,12.10
2019-03-03T22:40:43.337Z,12.00
2019-03-03T22:43:12.224Z,12.10
2019-03-03T22:45:41.222Z,12.10
2019-03-03T22:48:09.937Z,12.10
2019-03-03T22:50:38.732Z,12.10
2019-03-03T22:53:07.632Z,12.00
2019-03-03T22:55:40.418Z,12.00
2019-03-03T22:58:08.823Z,12.10
2019-03-03T23:00:53.285Z,12.10
2019-03-03T23:03:36.538Z,12.10
2019-03-03T23:06:21.169Z,12.10
2019-03-03T23:09:26.649Z,12.00
2019-03-03T23:12:27.872Z,12.10
2019-03-03T23:15:21.074Z,12.10
2019-03-03T23:18:16.718Z,12.10
2019-03-03T23:21:06.231Z,12.00
2019-03-03T23:24:11.661Z,11.90
2019-03-03T23:26:40.452Z,11.90
2019-03-03T23:29:09.255Z,11.90
2019-03-03T23:31:38.128Z,11.80
2019-03-03T23:34:07.223Z,11.90
2019-03-03T23:36:35.933Z,12.00
2019-03-03T23:39:06.876Z,12.00
2019-03-03T23:41:35.830Z,12.00
2019-03-03T23:44:04.973Z,12.10
2019-03-03T23:46:33.695Z,12.10
2019-03-03T23:49:02.637Z,12.10
2019-03-03T23:51:31.699Z,12.10
2019-03-03T23:54:00.640Z,12.20
2019-03-03T23:56:29.588Z,12.30
2019-03-03T23:58:58.464Z,12.20
